createdAt,value
2022-11-12T00:03:31.862Z,8.00
2022-11-12T00:08:26.815Z,8.00
2022-11-12T00:13:20.353Z,8.00
2022-11-12T00:18:13.667Z,7.90
2022-11-12T00:23:06.984Z,7.90
2022-11-12T00:28:07.401Z,7.90
2022-11-12T00:33:03.746Z,7.80
2022-11-12T00:37:57.898Z,7.60
2022-11-12T00:42:53.234Z,7.60
2022-11-12T00:47:50.749Z,7.50
2022-11-12T00:52:44.407Z,7.60
2022-11-12T00:57:37.671Z,7.60
2022-11-12T01:02:30.910Z,7.70
2022-11-12T01:07:25.623Z,7.70
2022-11-12T01:12:18.830Z,7.70
2022-11-12T01:17:12.114Z,7.80
2022-11-12T01:22:05.424Z,7.80
2022-11-12T01:27:00.107Z,7.90
2022-11-12T01:31:53.370Z,8.00
2022-11-12T01:36:46.656Z,7.70
2022-11-12T01:41:42.621Z,7.80
2022-11-12T01:46:48.046Z,7.80
2022-11-12T01:51:46.695Z,7.80
2022-11-12T01:56:42.474Z,7.80
2022-11-12T02:01:39.125Z,7.80
2022-11-12T02:06:35.576Z,7.80
2022-11-12T02:11:28.891Z,7.80
2022-11-12T02:16:24.746Z,7.80
2022-11-12T02:21:21.737Z,7.90
2022-11-12T02:26:15.084Z,8.00
2022-11-12T02:31:08.416Z,7.90
2022-11-12T02:36:01.744Z,7.80
2022-11-12T02:40:56.432Z,7.80
2022-11-12T02:45:51.757Z,7.90
2022-11-12T02:50:45.013Z,7.90
2022-11-12T02:55:38.305Z,7.90
2022-11-12T03:00:32.995Z,7.80
2022-11-12T03:05:27.842Z,7.90
2022-11-12T03:10:21.182Z,7.90
2022-11-12T03:15:14.521Z,7.80
2022-11-12T03:20:12.590Z,7.80
2022-11-12T03:25:08.095Z,7.80
2022-11-12T03:30:01.403Z,7.80
2022-11-12T03:34:55.704Z,7.80
2022-11-12T03:39:50.491Z,7.80
2022-11-12T03:44:43.759Z,7.80
2022-11-12T03:49:37.462Z,7.70
2022-11-12T03:54:30.752Z,7.70
2022-11-12T03:59:25.460Z,7.70
2022-11-12T04:04:19.192Z,7.80
2022-11-12T04:09:11.755Z,7.90
2022-11-12T04:14:05.250Z,7.90
2022-11-12T04:19:25.896Z,8.00
2022-11-12T04:24:38.586Z,7.90
2022-11-12T04:29:49.577Z,7.90
2022-11-12T04:34:44.670Z,7.80
2022-11-12T04:39:37.985Z,7.90
2022-11-12T04:44:48.832Z,7.80
2022-11-12T04:49:43.520Z,7.80
2022-11-12T04:54:36.825Z,7.80
2022-11-12T04:59:30.155Z,7.80
2022-11-12T05:04:27.535Z,7.80
2022-11-12T05:09:25.425Z,7.80
2022-11-12T05:14:19.070Z,7.80
2022-11-12T05:19:12.444Z,7.80
2022-11-12T05:24:06.341Z,7.80
2022-11-12T05:29:04.949Z,7.80
2022-11-12T05:34:01.172Z,7.80
2022-11-12T05:38:54.531Z,7.70
2022-11-12T05:43:49.741Z,7.80
2022-11-12T05:48:44.429Z,7.80
2022-11-12T05:53:38.042Z,7.80
2022-11-12T05:58:31.529Z,7.80
2022-11-12T06:03:28.024Z,7.60
2022-11-12T06:08:23.272Z,7.50
2022-11-12T06:13:17.208Z,7.50
2022-11-12T06:18:15.472Z,7.50
2022-11-12T06:23:23.655Z,7.60
2022-11-12T06:28:18.381Z,7.70
2022-11-12T06:33:11.635Z,7.70
2022-11-12T06:38:04.916Z,7.60
2022-11-12T06:42:58.759Z,7.70
2022-11-12T06:47:53.410Z,7.80
2022-11-12T06:52:47.109Z,7.70
2022-11-12T06:57:40.386Z,7.50
2022-11-12T07:02:33.634Z,7.50
2022-11-12T07:07:30.156Z,7.40
2022-11-12T07:12:23.477Z,7.70
2022-11-12T07:17:16.728Z,7.70
2022-11-12T07:22:10.016Z,7.80
2022-11-12T07:27:05.293Z,7.70
2022-11-12T07:31:58.592Z,7.70
2022-11-12T07:36:52.045Z,7.90
2022-11-12T07:41:45.639Z,7.80
2022-11-12T07:46:41.279Z,7.70
2022-11-12T07:51:34.606Z,7.70
2022-11-12T07:56:29.564Z,7.70
2022-11-12T08:01:30.982Z,7.50
2022-11-12T08:06:26.677Z,7.60
2022-11-12T08:11:20.611Z,7.70
2022-11-12T08:16:14.075Z,7.70
2022-11-12T08:21:12.395Z,7.70
2022-11-12T08:26:10.377Z,7.60
2022-11-12T08:31:06.888Z,7.50
2022-11-12T08:36:00.438Z,7.50
2022-11-12T08:40:54.143Z,7.70
2022-11-12T08:45:50.073Z,7.70
2022-11-12T08:50:43.579Z,7.60
2022-11-12T08:55:37.851Z,7.70
2022-11-12T09:00:33.159Z,7.80
2022-11-12T09:05:28.434Z,7.90
2022-11-12T09:10:21.679Z,8.00
2022-11-12T09:20:31.578Z,7.90
2022-11-12T09:25:24.968Z,8.00
2022-11-12T09:30:18.356Z,8.10
2022-11-12T09:35:11.698Z,8.10
2022-11-12T09:40:08.308Z,8.10
2022-11-12T09:45:15.001Z,8.10
2022-11-12T09:50:22.581Z,8.20
2022-11-12T09:55:33.481Z,8.10
2022-11-12T10:00:26.834Z,8.20
2022-11-12T10:05:30.127Z,8.00
2022-11-12T10:10:40.025Z,7.90
2022-11-12T10:16:11.741Z,8.00
2022-11-12T10:21:21.133Z,7.70
2022-11-12T10:26:18.863Z,7.70
2022-11-12T10:31:15.869Z,7.80
2022-11-12T10:36:27.662Z,7.90
2022-11-12T10:41:26.671Z,7.90
2022-11-12T10:46:23.467Z,7.80
2022-11-12T10:51:26.873Z,7.80
2022-11-12T10:56:31.370Z,7.90
2022-11-12T11:01:24.783Z,8.10
2022-11-12T11:06:26.789Z,8.10
2022-11-12T11:11:29.442Z,7.90
2022-11-12T11:16:25.168Z,7.80
2022-11-12T11:21:58.060Z,7.70
2022-11-12T11:27:04.386Z,7.70
2022-11-12T11:32:09.086Z,7.60
2022-11-12T11:37:18.285Z,7.70
2022-11-12T11:42:34.815Z,7.90
2022-11-12T11:47:59.904Z,8.10
2022-11-12T11:53:12.589Z,8.20
2022-11-12T11:58:40.198Z,8.00
2022-11-12T12:03:54.321Z,7.90
2022-11-12T12:09:19.962Z,7.90
2022-11-12T12:14:41.715Z,7.90
2022-11-12T12:19:55.579Z,7.90
2022-11-12T12:24:56.806Z,8.10
2022-11-12T12:29:57.382Z,8.10
2022-11-12T12:35:00.477Z,8.10
2022-11-12T12:40:04.633Z,8.20
2022-11-12T12:45:15.921Z,8.40
2022-11-12T12:50:16.485Z,8.60
2022-11-12T12:55:39.091Z,8.40
2022-11-12T13:00:40.945Z,8.30
2022-11-12T13:05:39.587Z,8.30
2022-11-12T13:10:52.114Z,8.20
2022-11-12T13:15:49.078Z,8.20
2022-11-12T13:20:43.959Z,8.40
2022-11-12T13:25:38.135Z,8.50
2022-11-12T13:31:05.317Z,8.40
2022-11-12T13:36:29.054Z,8.30
2022-11-12T13:41:39.393Z,8.20
2022-11-12T13:46:35.735Z,8.30
2022-11-12T13:51:42.089Z,8.30
2022-11-12T13:56:39.143Z,8.20
2022-11-12T14:01:35.196Z,8.10
2022-11-12T14:06:37.498Z,8.10
2022-11-12T14:11:56.431Z,8.10
2022-11-12T14:17:10.793Z,8.10
2022-11-12T14:22:16.275Z,8.20
2022-11-12T14:27:36.728Z,8.10
2022-11-12T14:32:42.646Z,8.20
2022-11-12T14:37:43.435Z,8.20
2022-11-12T14:42:37.191Z,8.20
2022-11-12T14:47:31.886Z,8.20
2022-11-12T14:52:32.340Z,8.20
2022-11-12T14:57:30.460Z,8.10
2022-11-12T15:02:39.044Z,8.10
2022-11-12T15:07:55.766Z,8.00
2022-11-12T15:12:49.178Z,8.10
2022-11-12T15:17:42.569Z,8.00
2022-11-12T15:22:35.996Z,7.80
2022-11-12T15:27:38.337Z,7.90
2022-11-12T15:32:35.497Z,8.00
2022-11-12T15:37:33.951Z,7.90
2022-11-12T15:42:37.769Z,8.00
2022-11-12T15:47:31.612Z,7.90
2022-11-12T15:52:24.923Z,7.90
2022-11-12T15:57:22.758Z,7.90
2022-11-12T16:02:17.596Z,7.90
2022-11-12T16:07:11.526Z,7.90
2022-11-12T16:12:05.247Z,7.80
2022-11-12T16:16:58.678Z,7.80
2022-11-12T16:21:55.737Z,7.70
2022-11-12T16:26:49.039Z,7.60
2022-11-12T16:31:44.347Z,7.70
2022-11-12T16:36:37.991Z,7.80
2022-11-12T16:41:32.745Z,7.80
2022-11-12T16:46:30.437Z,7.90
2022-11-12T16:51:24.388Z,8.00
2022-11-12T16:56:21.292Z,8.10
2022-11-12T17:01:25.231Z,8.20
2022-11-12T17:06:19.154Z,8.10
2022-11-12T17:11:12.515Z,8.10
2022-11-12T17:16:07.106Z,8.10
2022-11-12T17:21:11.215Z,8.00
2022-11-12T17:26:07.379Z,8.00
2022-11-12T17:31:10.699Z,8.00
2022-11-12T17:36:06.808Z,8.10
2022-11-12T17:41:01.423Z,8.00
2022-11-12T17:45:56.849Z,8.20
2022-11-12T17:50:51.020Z,8.20
2022-11-12T17:56:52.198Z,8.30
2022-11-12T18:28:28.699Z,7.60
2022-11-12T18:54:33.103Z,7.90
2022-11-12T18:59:30.948Z,7.90
2022-11-12T19:04:24.650Z,8.00
2022-11-12T19:09:22.458Z,8.10
2022-11-12T19:14:18.098Z,8.10
2022-11-12T19:19:12.325Z,8.10
2022-11-12T19:24:06.705Z,8.10
2022-11-12T19:29:01.948Z,8.20
2022-11-12T19:33:55.885Z,8.20
2022-11-12T19:38:49.280Z,8.20
2022-11-12T19:43:42.971Z,8.30
2022-11-12T19:48:38.372Z,8.30
2022-11-12T19:53:32.928Z,8.10
2022-11-12T19:58:26.608Z,8.00
2022-11-12T20:03:25.106Z,8.00
2022-11-12T20:08:19.809Z,8.00
2022-11-12T20:13:13.110Z,7.90
2022-11-12T20:18:06.732Z,7.80
2022-11-12T20:23:00.330Z,7.70
2022-11-12T20:27:55.155Z,7.50
2022-11-12T20:32:48.473Z,7.60
2022-11-12T20:37:41.811Z,7.70
2022-11-12T20:42:35.077Z,7.80
2022-11-12T20:47:29.791Z,7.70
2022-11-12T20:52:23.128Z,7.50
2022-11-12T20:57:16.427Z,7.40
2022-11-12T21:02:11.585Z,7.40
2022-11-12T21:07:06.356Z,7.50
2022-11-12T21:12:00.058Z,7.50
2022-11-12T21:16:53.343Z,7.50
2022-11-12T21:21:46.678Z,7.60
2022-11-12T21:26:41.451Z,7.60
2022-11-12T21:31:34.919Z,7.60
2022-11-12T21:36:30.100Z,7.30
2022-11-12T21:41:25.558Z,7.30
2022-11-12T21:46:23.287Z,7.20
2022-11-12T21:51:27.212Z,7.10
2022-11-12T21:56:20.854Z,7.10
2022-11-12T22:01:18.152Z,7.00
2022-11-12T22:06:13.867Z,7.20
2022-11-12T22:11:17.684Z,7.10
2022-11-12T22:16:14.003Z,7.10
2022-11-12T22:21:09.687Z,7.00
2022-11-12T22:26:07.314Z,7.20
2022-11-12T22:31:05.573Z,7.00
2022-11-12T22:36:02.754Z,7.00
2022-11-12T22:41:04.648Z,7.10
2022-11-12T22:45:58.314Z,7.20
2022-11-12T22:50:51.674Z,7.10
2022-11-12T22:55:44.929Z,7.00
2022-11-12T23:00:39.586Z,6.70
2022-11-12T23:05:32.787Z,6.60
2022-11-12T23:10:26.120Z,6.80
2022-11-12T23:15:19.356Z,7.00
2022-11-12T23:20:14.449Z,7.10
2022-11-12T23:25:09.613Z,7.10
2022-11-12T23:30:03.335Z,7.10
2022-11-12T23:34:56.603Z,7.00
2022-11-12T23:39:51.200Z,7.00
2022-11-12T23:44:45.362Z,6.80
2022-11-12T23:49:38.647Z,6.70
2022-11-12T23:54:31.967Z,6.40
2022-11-12T23:59:26.673Z,6.40
